Eagle, Alaska
Current Conditions -  °F | °C
As of 3:09 AM on Monday 24 Nov 2014 (Local Time) from PAEG Reporting Station
Broken Clouds Broken Clouds  
Wind Chill:   Ceiling: 2200
Heat Index: 13°   Visibility: 10mi
Dew Point:   Wind: 7mph
Humidity: 74%   Direction: 100°E
Pressure: 29.78"   Gusts: NA
Location:  64.78°N, 141.21°W
Report Text: PAEG 241209Z AUTO 10006KT 10SM BKN022 M11/M14 A2978 RMK AO2 T11061144 TSNO $
Loading
Personal Weather Stations






























Interactive Weather Map New forecast layout! Learn more

10-Day Weather Forecast

Advertisements
Track Severe Weather on mobile